sensor_id;sensor_type;location;lat;lon;timestamp;P1;durP1;ratioP1;P2;durP2;ratioP2
16407;SDS011;8313;49.894;8.084;2024-03-06T00:00:05;5.73;;;3.60;;
16407;SDS011;8313;49.894;8.084;2024-03-06T00:02:34;2.73;;;2.53;;
16407;SDS011;8313;49.894;8.084;2024-03-06T00:05:02;3.00;;;2.23;;
16407;SDS011;8313;49.894;8.084;2024-03-06T00:07:28;2.30;;;2.10;;
16407;SDS011;8313;49.894;8.084;2024-03-06T00:09:53;2.10;;;1.90;;
16407;SDS011;8313;49.894;8.084;2024-03-06T00:12:19;2.27;;;2.17;;
16407;SDS011;8313;49.894;8.084;2024-03-06T00:14:45;1.97;;;1.77;;
16407;SDS011;8313;49.894;8.084;2024-03-06T00:17:10;2.63;;;2.43;;
16407;SDS011;8313;49.894;8.084;2024-03-06T00:19:36;3.30;;;2.80;;
16407;SDS011;8313;49.894;8.084;2024-03-06T00:22:01;4.00;;;3.50;;
16407;SDS011;8313;49.894;8.084;2024-03-06T00:24:27;5.33;;;4.83;;
16407;SDS011;8313;49.894;8.084;2024-03-06T00:26:53;5.97;;;4.97;;
16407;SDS011;8313;49.894;8.084;2024-03-06T00:29:18;4.03;;;3.63;;
16407;SDS011;8313;49.894;8.084;2024-03-06T00:31:45;4.80;;;3.77;;
16407;SDS011;8313;49.894;8.084;2024-03-06T00:34:11;3.63;;;3.23;;
16407;SDS011;8313;49.894;8.084;2024-03-06T00:36:42;2.70;;;2.50;;
16407;SDS011;8313;49.894;8.084;2024-03-06T00:39:11;4.23;;;2.77;;
16407;SDS011;8313;49.894;8.084;2024-03-06T00:41:39;3.43;;;3.13;;
16407;SDS011;8313;49.894;8.084;2024-03-06T00:44:05;3.20;;;2.50;;
16407;SDS011;8313;49.894;8.084;2024-03-06T00:46:31;3.37;;;2.50;;
16407;SDS011;8313;49.894;8.084;2024-03-06T00:48:56;3.17;;;2.30;;
16407;SDS011;8313;49.894;8.084;2024-03-06T00:51:22;2.57;;;2.23;;
16407;SDS011;8313;49.894;8.084;2024-03-06T00:53:48;3.63;;;2.40;;
16407;SDS011;8313;49.894;8.084;2024-03-06T00:56:13;4.40;;;2.80;;
16407;SDS011;8313;49.894;8.084;2024-03-06T00:58:39;3.00;;;1.87;;
16407;SDS011;8313;49.894;8.084;2024-03-06T01:01:05;2.37;;;2.17;;
16407;SDS011;8313;49.894;8.084;2024-03-06T01:03:30;2.07;;;1.90;;
16407;SDS011;8313;49.894;8.084;2024-03-06T01:05:56;3.73;;;2.37;;
16407;SDS011;8313;49.894;8.084;2024-03-06T01:08:22;2.70;;;2.10;;
16407;SDS011;8313;49.894;8.084;2024-03-06T01:10:50;2.43;;;1.93;;
16407;SDS011;8313;49.894;8.084;2024-03-06T01:13:22;2.17;;;1.97;;
16407;SDS011;8313;49.894;8.084;2024-03-06T01:15:48;2.07;;;1.83;;
16407;SDS011;8313;49.894;8.084;2024-03-06T01:18:13;2.67;;;2.10;;
16407;SDS011;8313;49.894;8.084;2024-03-06T01:20:39;2.23;;;2.00;;
16407;SDS011;8313;49.894;8.084;2024-03-06T01:23:05;3.50;;;2.30;;
16407;SDS011;8313;49.894;8.084;2024-03-06T01:25:31;1.83;;;1.73;;
16407;SDS011;8313;49.894;8.084;2024-03-06T01:27:57;2.00;;;1.80;;
16407;SDS011;8313;49.894;8.084;2024-03-06T01:30:23;2.20;;;2.00;;
16407;SDS011;8313;49.894;8.084;2024-03-06T01:32:48;4.17;;;1.93;;
16407;SDS011;8313;49.894;8.084;2024-03-06T01:35:14;1.83;;;1.73;;
16407;SDS011;8313;49.894;8.084;2024-03-06T01:37:40;2.30;;;2.10;;
16407;SDS011;8313;49.894;8.084;2024-03-06T01:40:05;2.40;;;2.00;;
16407;SDS011;8313;49.894;8.084;2024-03-06T01:42:32;2.10;;;1.90;;
16407;SDS011;8313;49.894;8.084;2024-03-06T01:44:58;2.57;;;2.37;;
16407;SDS011;8313;49.894;8.084;2024-03-06T01:47:24;4.93;;;2.03;;
16407;SDS011;8313;49.894;8.084;2024-03-06T01:49:49;3.57;;;1.87;;
16407;SDS011;8313;49.894;8.084;2024-03-06T01:52:15;2.20;;;2.00;;
16407;SDS011;8313;49.894;8.084;2024-03-06T01:54:43;3.37;;;2.80;;
16407;SDS011;8313;49.894;8.084;2024-03-06T01:57:10;2.40;;;2.20;;
16407;SDS011;8313;49.894;8.084;2024-03-06T01:59:39;3.00;;;2.03;;
16407;SDS011;8313;49.894;8.084;2024-03-06T02:02:07;2.17;;;1.97;;
16407;SDS011;8313;49.894;8.084;2024-03-06T02:04:36;1.43;;;1.33;;
16407;SDS011;8313;49.894;8.084;2024-03-06T02:07:08;3.57;;;2.07;;
16407;SDS011;8313;49.894;8.084;2024-03-06T02:09:36;2.47;;;1.43;;
16407;SDS011;8313;49.894;8.084;2024-03-06T02:12:02;2.00;;;1.47;;
16407;SDS011;8313;49.894;8.084;2024-03-06T02:14:28;2.63;;;1.83;;
16407;SDS011;8313;49.894;8.084;2024-03-06T02:16:54;2.40;;;2.20;;
16407;SDS011;8313;49.894;8.084;2024-03-06T02:19:20;1.80;;;1.60;;
16407;SDS011;8313;49.894;8.084;2024-03-06T02:21:45;2.50;;;1.87;;
16407;SDS011;8313;49.894;8.084;2024-03-06T02:24:11;1.90;;;1.43;;
16407;SDS011;8313;49.894;8.084;2024-03-06T02:26:38;3.87;;;1.87;;
16407;SDS011;8313;49.894;8.084;2024-03-06T02:29:04;2.00;;;1.60;;
16407;SDS011;8313;49.894;8.084;2024-03-06T02:31:31;3.43;;;1.80;;
16407;SDS011;8313;49.894;8.084;2024-03-06T02:33:56;2.03;;;1.80;;
16407;SDS011;8313;49.894;8.084;2024-03-06T02:36:24;1.60;;;1.50;;
16407;SDS011;8313;49.894;8.084;2024-03-06T02:38:50;2.53;;;1.63;;
16407;SDS011;8313;49.894;8.084;2024-03-06T02:41:15;2.27;;;1.70;;
16407;SDS011;8313;49.894;8.084;2024-03-06T02:43:42;1.47;;;1.30;;
16407;SDS011;8313;49.894;8.084;2024-03-06T02:46:08;2.53;;;1.67;;
16407;SDS011;8313;49.894;8.084;2024-03-06T02:48:34;2.50;;;2.27;;
16407;SDS011;8313;49.894;8.084;2024-03-06T02:51:00;1.97;;;1.77;;
16407;SDS011;8313;49.894;8.084;2024-03-06T02:53:25;3.10;;;2.27;;
16407;SDS011;8313;49.894;8.084;2024-03-06T02:55:52;2.20;;;1.57;;
16407;SDS011;8313;49.894;8.084;2024-03-06T02:58:18;2.30;;;2.10;;
16407;SDS011;8313;49.894;8.084;2024-03-06T03:00:44;2.43;;;2.13;;
16407;SDS011;8313;49.894;8.084;2024-03-06T03:03:10;2.23;;;2.03;;
16407;SDS011;8313;49.894;8.084;2024-03-06T03:05:39;2.70;;;2.20;;
16407;SDS011;8313;49.894;8.084;2024-03-06T03:08:08;3.17;;;1.83;;
16407;SDS011;8313;49.894;8.084;2024-03-06T03:10:34;2.70;;;2.03;;
16407;SDS011;8313;49.894;8.084;2024-03-06T03:13:00;2.80;;;2.00;;
16407;SDS011;8313;49.894;8.084;2024-03-06T03:15:26;6.30;;;2.30;;
16407;SDS011;8313;49.894;8.084;2024-03-06T03:17:52;2.20;;;1.80;;
16407;SDS011;8313;49.894;8.084;2024-03-06T03:20:17;2.17;;;1.93;;
16407;SDS011;8313;49.894;8.084;2024-03-06T03:22:43;2.50;;;1.70;;
16407;SDS011;8313;49.894;8.084;2024-03-06T03:25:09;1.77;;;1.67;;
16407;SDS011;8313;49.894;8.084;2024-03-06T03:27:39;2.23;;;2.03;;
16407;SDS011;8313;49.894;8.084;2024-03-06T03:30:09;1.90;;;1.80;;
16407;SDS011;8313;49.894;8.084;2024-03-06T03:32:36;3.37;;;1.93;;
16407;SDS011;8313;49.894;8.084;2024-03-06T03:35:03;1.47;;;1.37;;
16407;SDS011;8313;49.894;8.084;2024-03-06T03:37:30;1.70;;;1.47;;
16407;SDS011;8313;49.894;8.084;2024-03-06T03:39:56;2.80;;;1.77;;
16407;SDS011;8313;49.894;8.084;2024-03-06T03:42:22;1.37;;;1.27;;
16407;SDS011;8313;49.894;8.084;2024-03-06T03:44:47;2.20;;;1.90;;
16407;SDS011;8313;49.894;8.084;2024-03-06T03:47:13;2.00;;;1.90;;
16407;SDS011;8313;49.894;8.084;2024-03-06T03:49:38;2.20;;;1.53;;
16407;SDS011;8313;49.894;8.084;2024-03-06T03:52:04;2.50;;;1.60;;
16407;SDS011;8313;49.894;8.084;2024-03-06T03:54:30;1.60;;;1.50;;
16407;SDS011;8313;49.894;8.084;2024-03-06T03:56:56;3.20;;;2.07;;
16407;SDS011;8313;49.894;8.084;2024-03-06T03:59:24;2.77;;;2.13;;
16407;SDS011;8313;49.894;8.084;2024-03-06T04:01:50;3.33;;;2.10;;
16407;SDS011;8313;49.894;8.084;2024-03-06T04:04:15;1.80;;;1.50;;
16407;SDS011;8313;49.894;8.084;2024-03-06T04:06:41;3.70;;;2.67;;
16407;SDS011;8313;49.894;8.084;2024-03-06T04:09:07;2.80;;;1.93;;
16407;SDS011;8313;49.894;8.084;2024-03-06T04:11:35;2.30;;;2.10;;
16407;SDS011;8313;49.894;8.084;2024-03-06T04:14:03;1.97;;;1.50;;
16407;SDS011;8313;49.894;8.084;2024-03-06T04:16:29;3.47;;;2.40;;
16407;SDS011;8313;49.894;8.084;2024-03-06T04:18:54;2.87;;;2.27;;
16407;SDS011;8313;49.894;8.084;2024-03-06T04:21:20;2.50;;;2.27;;
16407;SDS011;8313;49.894;8.084;2024-03-06T04:23:47;1.73;;;1.60;;
16407;SDS011;8313;49.894;8.084;2024-03-06T04:26:13;3.90;;;1.97;;
16407;SDS011;8313;49.894;8.084;2024-03-06T04:28:39;2.17;;;1.97;;
16407;SDS011;8313;49.894;8.084;2024-03-06T04:31:04;3.80;;;1.77;;
16407;SDS011;8313;49.894;8.084;2024-03-06T04:33:31;2.80;;;1.87;;
16407;SDS011;8313;49.894;8.084;2024-03-06T04:35:56;2.50;;;1.50;;
16407;SDS011;8313;49.894;8.084;2024-03-06T04:38:22;2.17;;;1.93;;
16407;SDS011;8313;49.894;8.084;2024-03-06T04:40:48;2.20;;;2.00;;
16407;SDS011;8313;49.894;8.084;2024-03-06T04:43:13;2.20;;;1.80;;
16407;SDS011;8313;49.894;8.084;2024-03-06T04:45:39;4.93;;;2.20;;
16407;SDS011;8313;49.894;8.084;2024-03-06T04:48:05;2.43;;;1.50;;
16407;SDS011;8313;49.894;8.084;2024-03-06T04:50:31;2.73;;;1.80;;
16407;SDS011;8313;49.894;8.084;2024-03-06T04:52:57;2.60;;;1.90;;
16407;SDS011;8313;49.894;8.084;2024-03-06T04:55:23;1.30;;;1.20;;
16407;SDS011;8313;49.894;8.084;2024-03-06T04:57:51;2.80;;;2.13;;
16407;SDS011;8313;49.894;8.084;2024-03-06T05:00:18;1.90;;;1.70;;
16407;SDS011;8313;49.894;8.084;2024-03-06T05:02:44;2.03;;;1.40;;
16407;SDS011;8313;49.894;8.084;2024-03-06T05:05:10;2.37;;;2.17;;
16407;SDS011;8313;49.894;8.084;2024-03-06T05:07:36;3.53;;;1.80;;
16407;SDS011;8313;49.894;8.084;2024-03-06T05:10:02;2.20;;;2.00;;
16407;SDS011;8313;49.894;8.084;2024-03-06T05:12:28;2.77;;;2.10;;
16407;SDS011;8313;49.894;8.084;2024-03-06T05:14:54;1.67;;;1.57;;
16407;SDS011;8313;49.894;8.084;2024-03-06T05:17:20;3.10;;;2.10;;
16407;SDS011;8313;49.894;8.084;2024-03-06T05:19:47;2.03;;;1.93;;
16407;SDS011;8313;49.894;8.084;2024-03-06T05:22:14;2.43;;;2.00;;
16407;SDS011;8313;49.894;8.084;2024-03-06T05:24:41;5.03;;;2.57;;
16407;SDS011;8313;49.894;8.084;2024-03-06T05:27:08;2.90;;;2.23;;
16407;SDS011;8313;49.894;8.084;2024-03-06T05:29:35;2.13;;;2.00;;
16407;SDS011;8313;49.894;8.084;2024-03-06T05:32:02;2.73;;;1.77;;
16407;SDS011;8313;49.894;8.084;2024-03-06T05:34:28;2.10;;;1.90;;
16407;SDS011;8313;49.894;8.084;2024-03-06T05:36:55;4.30;;;1.77;;
16407;SDS011;8313;49.894;8.084;2024-03-06T05:39:20;2.27;;;2.07;;
16407;SDS011;8313;49.894;8.084;2024-03-06T05:41:46;2.00;;;1.50;;
16407;SDS011;8313;49.894;8.084;2024-03-06T05:44:12;3.70;;;2.20;;
16407;SDS011;8313;49.894;8.084;2024-03-06T05:46:38;2.07;;;1.80;;
16407;SDS011;8313;49.894;8.084;2024-03-06T05:49:03;2.20;;;1.90;;
16407;SDS011;8313;49.894;8.084;2024-03-06T05:51:29;5.03;;;2.30;;
16407;SDS011;8313;49.894;8.084;2024-03-06T05:53:55;3.30;;;2.20;;
16407;SDS011;8313;49.894;8.084;2024-03-06T05:56:21;3.53;;;2.03;;
16407;SDS011;8313;49.894;8.084;2024-03-06T05:58:47;3.07;;;2.33;;
16407;SDS011;8313;49.894;8.084;2024-03-06T06:01:17;2.07;;;1.60;;
16407;SDS011;8313;49.894;8.084;2024-03-06T06:03:47;2.60;;;1.83;;
16407;SDS011;8313;49.894;8.084;2024-03-06T06:06:16;2.23;;;1.70;;
16407;SDS011;8313;49.894;8.084;2024-03-06T06:08:44;1.90;;;1.80;;
16407;SDS011;8313;49.894;8.084;2024-03-06T06:11:10;2.13;;;1.93;;
16407;SDS011;8313;49.894;8.084;2024-03-06T06:13:36;5.53;;;2.10;;
16407;SDS011;8313;49.894;8.084;2024-03-06T06:16:02;2.60;;;2.23;;
16407;SDS011;8313;49.894;8.084;2024-03-06T06:18:28;3.37;;;2.13;;
16407;SDS011;8313;49.894;8.084;2024-03-06T06:20:53;1.87;;;1.67;;
16407;SDS011;8313;49.894;8.084;2024-03-06T06:23:19;2.30;;;2.00;;
16407;SDS011;8313;49.894;8.084;2024-03-06T06:25:45;3.63;;;1.73;;
16407;SDS011;8313;49.894;8.084;2024-03-06T06:28:11;3.80;;;1.83;;
16407;SDS011;8313;49.894;8.084;2024-03-06T06:30:36;2.70;;;1.60;;
16407;SDS011;8313;49.894;8.084;2024-03-06T06:33:03;4.80;;;2.00;;
16407;SDS011;8313;49.894;8.084;2024-03-06T06:35:29;2.17;;;1.77;;
16407;SDS011;8313;49.894;8.084;2024-03-06T06:37:55;5.53;;;3.10;;
16407;SDS011;8313;49.894;8.084;2024-03-06T06:40:21;2.27;;;2.13;;
16407;SDS011;8313;49.894;8.084;2024-03-06T06:42:47;2.60;;;2.40;;
16407;SDS011;8313;49.894;8.084;2024-03-06T06:45:17;2.03;;;1.80;;
16407;SDS011;8313;49.894;8.084;2024-03-06T06:47:44;2.50;;;1.87;;
16407;SDS011;8313;49.894;8.084;2024-03-06T06:50:10;2.50;;;2.30;;
16407;SDS011;8313;49.894;8.084;2024-03-06T06:52:37;2.23;;;2.03;;
16407;SDS011;8313;49.894;8.084;2024-03-06T06:55:03;2.10;;;1.90;;
16407;SDS011;8313;49.894;8.084;2024-03-06T06:57:30;2.83;;;2.33;;
16407;SDS011;8313;49.894;8.084;2024-03-06T06:59:57;3.17;;;1.90;;
16407;SDS011;8313;49.894;8.084;2024-03-06T07:02:24;2.00;;;1.80;;
16407;SDS011;8313;49.894;8.084;2024-03-06T07:04:50;1.73;;;1.63;;
16407;SDS011;8313;49.894;8.084;2024-03-06T07:07:15;5.03;;;2.00;;
16407;SDS011;8313;49.894;8.084;2024-03-06T07:09:42;3.13;;;2.10;;
16407;SDS011;8313;49.894;8.084;2024-03-06T07:12:08;2.20;;;2.00;;
16407;SDS011;8313;49.894;8.084;2024-03-06T07:14:34;4.60;;;2.30;;
16407;SDS011;8313;49.894;8.084;2024-03-06T07:17:00;2.50;;;1.77;;
16407;SDS011;8313;49.894;8.084;2024-03-06T07:19:26;1.77;;;1.57;;
16407;SDS011;8313;49.894;8.084;2024-03-06T07:21:51;4.30;;;2.37;;
16407;SDS011;8313;49.894;8.084;2024-03-06T07:24:18;2.40;;;1.50;;
16407;SDS011;8313;49.894;8.084;2024-03-06T07:26:44;2.03;;;1.90;;
16407;SDS011;8313;49.894;8.084;2024-03-06T07:29:10;1.83;;;1.60;;
16407;SDS011;8313;49.894;8.084;2024-03-06T07:31:43;3.77;;;1.73;;
16407;SDS011;8313;49.894;8.084;2024-03-06T07:34:12;2.40;;;2.03;;
16407;SDS011;8313;49.894;8.084;2024-03-06T07:36:39;3.07;;;2.17;;
16407;SDS011;8313;49.894;8.084;2024-03-06T07:39:05;5.13;;;2.00;;
16407;SDS011;8313;49.894;8.084;2024-03-06T07:41:32;3.27;;;2.13;;
16407;SDS011;8313;49.894;8.084;2024-03-06T07:43:58;2.33;;;1.67;;
16407;SDS011;8313;49.894;8.084;2024-03-06T07:46:27;3.10;;;1.73;;
16407;SDS011;8313;49.894;8.084;2024-03-06T07:48:53;2.40;;;2.20;;
16407;SDS011;8313;49.894;8.084;2024-03-06T07:51:20;2.37;;;1.93;;
16407;SDS011;8313;49.894;8.084;2024-03-06T07:53:45;1.80;;;1.70;;
16407;SDS011;8313;49.894;8.084;2024-03-06T07:56:11;4.23;;;2.00;;
16407;SDS011;8313;49.894;8.084;2024-03-06T07:58:37;2.23;;;1.90;;
16407;SDS011;8313;49.894;8.084;2024-03-06T08:01:03;2.43;;;1.97;;
16407;SDS011;8313;49.894;8.084;2024-03-06T08:03:29;1.97;;;1.67;;
16407;SDS011;8313;49.894;8.084;2024-03-06T08:05:55;2.37;;;1.80;;
16407;SDS011;8313;49.894;8.084;2024-03-06T08:08:21;2.43;;;2.23;;
16407;SDS011;8313;49.894;8.084;2024-03-06T08:10:47;5.00;;;1.90;;
16407;SDS011;8313;49.894;8.084;2024-03-06T08:13:13;2.13;;;1.80;;
16407;SDS011;8313;49.894;8.084;2024-03-06T08:15:39;1.70;;;1.33;;
16407;SDS011;8313;49.894;8.084;2024-03-06T08:18:05;2.40;;;1.63;;
16407;SDS011;8313;49.894;8.084;2024-03-06T08:20:31;2.17;;;1.70;;
16407;SDS011;8313;49.894;8.084;2024-03-06T08:22:57;3.07;;;1.83;;
16407;SDS011;8313;49.894;8.084;2024-03-06T08:25:23;2.40;;;1.70;;
16407;SDS011;8313;49.894;8.084;2024-03-06T08:27:49;2.13;;;1.60;;
16407;SDS011;8313;49.894;8.084;2024-03-06T08:30:15;1.63;;;1.37;;
16407;SDS011;8313;49.894;8.084;2024-03-06T08:32:41;1.67;;;1.57;;
16407;SDS011;8313;49.894;8.084;2024-03-06T08:35:09;2.07;;;1.53;;
16407;SDS011;8313;49.894;8.084;2024-03-06T08:37:37;3.33;;;1.80;;
16407;SDS011;8313;49.894;8.084;2024-03-06T08:40:03;3.60;;;1.77;;
16407;SDS011;8313;49.894;8.084;2024-03-06T08:42:29;2.57;;;1.73;;
16407;SDS011;8313;49.894;8.084;2024-03-06T08:44:55;3.80;;;2.10;;
16407;SDS011;8313;49.894;8.084;2024-03-06T08:47:21;1.50;;;1.40;;
16407;SDS011;8313;49.894;8.084;2024-03-06T08:49:47;3.37;;;2.30;;
16407;SDS011;8313;49.894;8.084;2024-03-06T08:52:13;5.37;;;2.20;;
16407;SDS011;8313;49.894;8.084;2024-03-06T08:54:42;3.40;;;1.80;;
16407;SDS011;8313;49.894;8.084;2024-03-06T08:57:08;4.90;;;2.60;;
16407;SDS011;8313;49.894;8.084;2024-03-06T08:59:35;3.10;;;2.07;;
16407;SDS011;8313;49.894;8.084;2024-03-06T09:02:14;3.33;;;2.60;;
16407;SDS011;8313;49.894;8.084;2024-03-06T09:04:43;6.10;;;2.40;;
16407;SDS011;8313;49.894;8.084;2024-03-06T09:07:09;1.87;;;1.60;;
16407;SDS011;8313;49.894;8.084;2024-03-06T09:09:36;2.50;;;2.07;;
16407;SDS011;8313;49.894;8.084;2024-03-06T09:12:03;3.83;;;2.10;;
16407;SDS011;8313;49.894;8.084;2024-03-06T09:14:31;4.00;;;2.50;;
16407;SDS011;8313;49.894;8.084;2024-03-06T09:16:59;2.13;;;1.83;;
16407;SDS011;8313;49.894;8.084;2024-03-06T09:19:25;5.83;;;2.33;;
16407;SDS011;8313;49.894;8.084;2024-03-06T09:21:51;3.33;;;2.30;;
16407;SDS011;8313;49.894;8.084;2024-03-06T09:24:17;2.53;;;1.83;;
16407;SDS011;8313;49.894;8.084;2024-03-06T09:26:45;3.80;;;1.93;;
16407;SDS011;8313;49.894;8.084;2024-03-06T09:29:12;3.30;;;2.07;;
16407;SDS011;8313;49.894;8.084;2024-03-06T09:31:37;2.77;;;2.20;;
16407;SDS011;8313;49.894;8.084;2024-03-06T09:34:03;5.00;;;2.50;;
16407;SDS011;8313;49.894;8.084;2024-03-06T09:36:29;3.47;;;2.20;;
16407;SDS011;8313;49.894;8.084;2024-03-06T09:38:54;2.77;;;2.37;;
16407;SDS011;8313;49.894;8.084;2024-03-06T09:41:21;2.70;;;2.47;;
16407;SDS011;8313;49.894;8.084;2024-03-06T09:43:47;3.37;;;2.83;;
16407;SDS011;8313;49.894;8.084;2024-03-06T09:46:13;2.60;;;2.33;;
16407;SDS011;8313;49.894;8.084;2024-03-06T09:48:45;3.00;;;2.43;;
16407;SDS011;8313;49.894;8.084;2024-03-06T09:51:12;3.57;;;2.40;;
16407;SDS011;8313;49.894;8.084;2024-03-06T09:53:39;3.83;;;2.93;;
16407;SDS011;8313;49.894;8.084;2024-03-06T09:56:05;2.40;;;2.20;;
16407;SDS011;8313;49.894;8.084;2024-03-06T09:58:31;4.47;;;2.70;;
16407;SDS011;8313;49.894;8.084;2024-03-06T10:00:58;4.37;;;2.73;;
16407;SDS011;8313;49.894;8.084;2024-03-06T10:03:25;4.70;;;2.87;;
16407;SDS011;8313;49.894;8.084;2024-03-06T10:05:52;5.07;;;3.40;;
16407;SDS011;8313;49.894;8.084;2024-03-06T10:08:19;5.37;;;3.47;;
16407;SDS011;8313;49.894;8.084;2024-03-06T10:10:49;5.63;;;3.80;;
16407;SDS011;8313;49.894;8.084;2024-03-06T10:13:16;4.23;;;3.43;;
16407;SDS011;8313;49.894;8.084;2024-03-06T10:15:42;5.27;;;2.73;;
16407;SDS011;8313;49.894;8.084;2024-03-06T10:18:21;5.43;;;3.17;;
16407;SDS011;8313;49.894;8.084;2024-03-06T10:20:47;4.90;;;3.53;;
16407;SDS011;8313;49.894;8.084;2024-03-06T10:23:12;5.07;;;3.17;;
16407;SDS011;8313;49.894;8.084;2024-03-06T10:25:39;5.43;;;3.80;;
16407;SDS011;8313;49.894;8.084;2024-03-06T10:28:08;8.97;;;3.97;;
16407;SDS011;8313;49.894;8.084;2024-03-06T10:30:36;5.93;;;3.40;;
16407;SDS011;8313;49.894;8.084;2024-03-06T10:33:03;4.87;;;3.40;;
16407;SDS011;8313;49.894;8.084;2024-03-06T10:35:31;5.20;;;3.30;;
16407;SDS011;8313;49.894;8.084;2024-03-06T10:38:03;6.50;;;4.20;;
16407;SDS011;8313;49.894;8.084;2024-03-06T10:40:37;9.63;;;4.60;;
16407;SDS011;8313;49.894;8.084;2024-03-06T10:43:04;8.77;;;5.00;;
16407;SDS011;8313;49.894;8.084;2024-03-06T10:45:34;6.43;;;4.60;;
16407;SDS011;8313;49.894;8.084;2024-03-06T10:48:05;7.73;;;5.20;;
16407;SDS011;8313;49.894;8.084;2024-03-06T10:50:32;6.80;;;4.80;;
16407;SDS011;8313;49.894;8.084;2024-03-06T10:52:58;5.33;;;4.80;;
16407;SDS011;8313;49.894;8.084;2024-03-06T10:55:25;8.10;;;5.73;;
16407;SDS011;8313;49.894;8.084;2024-03-06T10:57:55;8.43;;;4.90;;
16407;SDS011;8313;49.894;8.084;2024-03-06T11:00:22;8.50;;;4.80;;
16407;SDS011;8313;49.894;8.084;2024-03-06T11:02:49;8.47;;;5.20;;
16407;SDS011;8313;49.894;8.084;2024-03-06T11:05:18;6.37;;;5.37;;
16407;SDS011;8313;49.894;8.084;2024-03-06T11:07:43;7.43;;;5.30;;
16407;SDS011;8313;49.894;8.084;2024-03-06T11:10:09;8.80;;;5.27;;
16407;SDS011;8313;49.894;8.084;2024-03-06T11:12:42;11.20;;;5.73;;
16407;SDS011;8313;49.894;8.084;2024-03-06T11:15:13;7.90;;;5.17;;
16407;SDS011;8313;49.894;8.084;2024-03-06T11:17:40;6.70;;;4.60;;
16407;SDS011;8313;49.894;8.084;2024-03-06T11:30:55;7.50;;;4.73;;
16407;SDS011;8313;49.894;8.084;2024-03-06T11:33:22;8.53;;;5.90;;
16407;SDS011;8313;49.894;8.084;2024-03-06T11:38:38;9.23;;;5.07;;
16407;SDS011;8313;49.894;8.084;2024-03-06T11:41:05;8.97;;;6.50;;
16407;SDS011;8313;49.894;8.084;2024-03-06T11:43:41;8.40;;;4.83;;
16407;SDS011;8313;49.894;8.084;2024-03-06T11:46:10;6.00;;;4.43;;
16407;SDS011;8313;49.894;8.084;2024-03-06T11:48:36;6.27;;;4.03;;
16407;SDS011;8313;49.894;8.084;2024-03-06T11:51:02;9.80;;;5.13;;
16407;SDS011;8313;49.894;8.084;2024-03-06T11:53:30;8.47;;;5.37;;
16407;SDS011;8313;49.894;8.084;2024-03-06T11:55:55;8.60;;;4.73;;
16407;SDS011;8313;49.894;8.084;2024-03-06T11:58:22;8.10;;;5.00;;
16407;SDS011;8313;49.894;8.084;2024-03-06T12:00:48;8.60;;;4.70;;
16407;SDS011;8313;49.894;8.084;2024-03-06T12:03:13;7.23;;;5.03;;
16407;SDS011;8313;49.894;8.084;2024-03-06T12:05:39;9.40;;;5.43;;
16407;SDS011;8313;49.894;8.084;2024-03-06T12:08:06;5.53;;;4.23;;
16407;SDS011;8313;49.894;8.084;2024-03-06T12:10:36;6.63;;;4.53;;
16407;SDS011;8313;49.894;8.084;2024-03-06T12:13:03;8.30;;;4.63;;
16407;SDS011;8313;49.894;8.084;2024-03-06T12:15:29;5.87;;;4.23;;
16407;SDS011;8313;49.894;8.084;2024-03-06T12:17:54;7.23;;;4.47;;
16407;SDS011;8313;49.894;8.084;2024-03-06T12:20:20;6.33;;;4.67;;
16407;SDS011;8313;49.894;8.084;2024-03-06T12:22:52;7.23;;;4.40;;
16407;SDS011;8313;49.894;8.084;2024-03-06T12:25:22;5.77;;;4.00;;
16407;SDS011;8313;49.894;8.084;2024-03-06T12:27:49;7.27;;;4.83;;
16407;SDS011;8313;49.894;8.084;2024-03-06T12:30:22;7.23;;;5.33;;
16407;SDS011;8313;49.894;8.084;2024-03-06T12:32:57;8.50;;;5.50;;
16407;SDS011;8313;49.894;8.084;2024-03-06T12:35:29;9.03;;;5.47;;
16407;SDS011;8313;49.894;8.084;2024-03-06T12:37:55;8.87;;;5.03;;
16407;SDS011;8313;49.894;8.084;2024-03-06T12:40:21;8.53;;;5.50;;
16407;SDS011;8313;49.894;8.084;2024-03-06T12:42:47;6.70;;;5.30;;
16407;SDS011;8313;49.894;8.084;2024-03-06T12:45:14;9.37;;;5.70;;
16407;SDS011;8313;49.894;8.084;2024-03-06T12:47:41;9.47;;;5.50;;
16407;SDS011;8313;49.894;8.084;2024-03-06T12:50:07;9.00;;;6.07;;
16407;SDS011;8313;49.894;8.084;2024-03-06T12:52:34;8.33;;;5.60;;
16407;SDS011;8313;49.894;8.084;2024-03-06T12:55:00;7.90;;;5.43;;
16407;SDS011;8313;49.894;8.084;2024-03-06T12:57:26;9.57;;;6.17;;
16407;SDS011;8313;49.894;8.084;2024-03-06T12:59:53;9.30;;;6.60;;
16407;SDS011;8313;49.894;8.084;2024-03-06T13:02:18;6.00;;;5.13;;
16407;SDS011;8313;49.894;8.084;2024-03-06T13:04:44;8.00;;;5.23;;
16407;SDS011;8313;49.894;8.084;2024-03-06T13:07:10;6.70;;;4.80;;
16407;SDS011;8313;49.894;8.084;2024-03-06T13:09:36;7.93;;;4.90;;
16407;SDS011;8313;49.894;8.084;2024-03-06T13:12:03;7.67;;;6.10;;
16407;SDS011;8313;49.894;8.084;2024-03-06T13:14:30;8.57;;;6.03;;
16407;SDS011;8313;49.894;8.084;2024-03-06T13:16:56;9.77;;;6.57;;
16407;SDS011;8313;49.894;8.084;2024-03-06T13:19:22;10.63;;;6.40;;
16407;SDS011;8313;49.894;8.084;2024-03-06T13:21:48;8.30;;;5.37;;
16407;SDS011;8313;49.894;8.084;2024-03-06T13:24:14;10.90;;;6.17;;
16407;SDS011;8313;49.894;8.084;2024-03-06T13:26:39;14.57;;;6.37;;
16407;SDS011;8313;49.894;8.084;2024-03-06T13:29:05;10.87;;;6.60;;
16407;SDS011;8313;49.894;8.084;2024-03-06T13:31:34;10.90;;;7.70;;
16407;SDS011;8313;49.894;8.084;2024-03-06T13:34:00;11.37;;;6.67;;
16407;SDS011;8313;49.894;8.084;2024-03-06T13:36:26;10.83;;;6.20;;
16407;SDS011;8313;49.894;8.084;2024-03-06T13:38:51;9.03;;;5.50;;
16407;SDS011;8313;49.894;8.084;2024-03-06T13:41:17;10.20;;;6.30;;
16407;SDS011;8313;49.894;8.084;2024-03-06T13:43:43;8.40;;;6.37;;
16407;SDS011;8313;49.894;8.084;2024-03-06T13:46:08;10.57;;;6.17;;
16407;SDS011;8313;49.894;8.084;2024-03-06T13:48:34;12.40;;;8.00;;
16407;SDS011;8313;49.894;8.084;2024-03-06T13:51:01;9.27;;;6.43;;
16407;SDS011;8313;49.894;8.084;2024-03-06T13:53:27;13.97;;;7.57;;
16407;SDS011;8313;49.894;8.084;2024-03-06T13:55:53;8.83;;;6.50;;
16407;SDS011;8313;49.894;8.084;2024-03-06T13:58:18;11.00;;;7.23;;
16407;SDS011;8313;49.894;8.084;2024-03-06T14:00:44;11.80;;;7.20;;
16407;SDS011;8313;49.894;8.084;2024-03-06T14:03:10;12.90;;;7.50;;
16407;SDS011;8313;49.894;8.084;2024-03-06T14:05:37;12.07;;;7.93;;
16407;SDS011;8313;49.894;8.084;2024-03-06T14:08:04;12.00;;;8.20;;
16407;SDS011;8313;49.894;8.084;2024-03-06T14:10:30;9.33;;;7.07;;
16407;SDS011;8313;49.894;8.084;2024-03-06T14:13:00;10.97;;;7.60;;
16407;SDS011;8313;49.894;8.084;2024-03-06T14:15:25;11.93;;;7.20;;
16407;SDS011;8313;49.894;8.084;2024-03-06T14:17:52;10.57;;;6.90;;
16407;SDS011;8313;49.894;8.084;2024-03-06T14:20:22;13.30;;;8.20;;
16407;SDS011;8313;49.894;8.084;2024-03-06T14:22:49;30.37;;;21.70;;
16407;SDS011;8313;49.894;8.084;2024-03-06T14:25:15;26.30;;;18.00;;
16407;SDS011;8313;49.894;8.084;2024-03-06T14:27:41;17.27;;;12.30;;
16407;SDS011;8313;49.894;8.084;2024-03-06T14:30:07;12.37;;;7.80;;
16407;SDS011;8313;49.894;8.084;2024-03-06T14:32:33;8.17;;;6.03;;
16407;SDS011;8313;49.894;8.084;2024-03-06T14:34:59;9.90;;;5.90;;
16407;SDS011;8313;49.894;8.084;2024-03-06T14:37:24;6.60;;;4.70;;
16407;SDS011;8313;49.894;8.084;2024-03-06T14:39:50;10.30;;;5.67;;
16407;SDS011;8313;49.894;8.084;2024-03-06T14:42:16;8.00;;;5.60;;
16407;SDS011;8313;49.894;8.084;2024-03-06T14:44:42;7.30;;;5.10;;
16407;SDS011;8313;49.894;8.084;2024-03-06T14:47:11;8.40;;;5.23;;
16407;SDS011;8313;49.894;8.084;2024-03-06T14:49:37;8.90;;;5.47;;
16407;SDS011;8313;49.894;8.084;2024-03-06T14:52:05;10.23;;;5.53;;
16407;SDS011;8313;49.894;8.084;2024-03-06T14:54:31;8.40;;;6.10;;
16407;SDS011;8313;49.894;8.084;2024-03-06T14:56:57;11.27;;;6.03;;
16407;SDS011;8313;49.894;8.084;2024-03-06T14:59:23;8.67;;;5.57;;
16407;SDS011;8313;49.894;8.084;2024-03-06T15:01:49;7.37;;;5.50;;
16407;SDS011;8313;49.894;8.084;2024-03-06T15:04:16;8.53;;;5.40;;
16407;SDS011;8313;49.894;8.084;2024-03-06T15:06:42;9.17;;;5.40;;
16407;SDS011;8313;49.894;8.084;2024-03-06T15:09:08;9.60;;;5.90;;